Red Admiral — WDA8745 — position and weather

sailwx.info

Track history (hours):
 
Tides and Currents Weather Stations Pressure Air Temp Water Temp Dewpoint Dewpoint Depression Visibility Wind Speed Wind Dir Waves Ship Positions

Red Admiral

Owner: McConnel Mr., William B, Easton, MD. More information available from US FCC via Universal Licensing System and Coast Guard Vessel Documentation Center.

Last reported at 2017-Sep-24 13:40 UTC. Time now 2017-Nov-22 15:02 UTC.
Position N 38°42' W 076°09'.
Warning: this ship's position is 59 days out of date.

Length 14 m.

Type: Sailing vessel. MMSI: 366857620.

Date/timePositionNaut miles runAvg speedWind from/ knotsBaromVisibWave heightAir tempDewpointWater temp
2017-Sep-24 13:40N 38°42' W 076°09'  
2017-Sep-21 14:06N 39°20' W 076°11'1 6.1
2017-Sep-21 14:00N 39°21' W 076°11'4 5.7
2017-Sep-21 13:18N 39°23' W 076°06'2 5.6
2017-Sep-21 13:01N 39°23' W 076°04'3 5.9
2017-Sep-21 12:26N 39°23' W 075°60'2 4.8
2017-Sep-21 12:00N 39°22' W 075°57'3 5.3
2017-Sep-21 11:30N 39°22' W 075°54'0 0.9
2017-Sep-21 11:00N 39°22' W 075°53'  
2017-Sep-18 21:21N 39°22' W 075°53'0 0.4
2017-Sep-18 21:00N 39°22' W 075°53'3 5.7
2017-Sep-18 20:28N 39°22' W 075°57'39 5.1
2017-Sep-18 12:44N 38°52' W 076°29'1 5.7
2017-Sep-18 12:30N 38°52' W 076°31'1 0.1
2017-Sep-17 20:59N 38°53' W 076°31'  
Track history (hours):
 
Tides and Currents Weather Stations Pressure Air Temp Water Temp Dewpoint Dewpoint Depression Visibility Wind Speed Wind Dir Waves Ship Positions

Red Admiral

Owner: McConnel Mr., William B, Easton, MD. More information available from US FCC via Universal Licensing System and Coast Guard Vessel Documentation Center.

Last reported at 2017-Sep-24 13:40 UTC. Time now 2017-Nov-22 15:02 UTC.
Position N 38°42' W 076°09'.
Warning: this ship's position is 59 days out of date.

Length 14 m.

Type: Sailing vessel. MMSI: 366857620.

Date/timePositionNaut miles runAvg speedWind from/ knotsBaromVisibWave heightAir tempDewpointWater temp
2017-Sep-24 13:40N 38°42' W 076°09'  
2017-Sep-21 14:06N 39°20' W 076°11'1 6.1
2017-Sep-21 14:00N 39°21' W 076°11'4 5.7
2017-Sep-21 13:18N 39°23' W 076°06'2 5.6
2017-Sep-21 13:01N 39°23' W 076°04'3 5.9
2017-Sep-21 12:26N 39°23' W 075°60'2 4.8
2017-Sep-21 12:00N 39°22' W 075°57'3 5.3
2017-Sep-21 11:30N 39°22' W 075°54'0 0.9
2017-Sep-21 11:00N 39°22' W 075°53'  
2017-Sep-18 21:21N 39°22' W 075°53'0 0.4
2017-Sep-18 21:00N 39°22' W 075°53'3 5.7
2017-Sep-18 20:28N 39°22' W 075°57'39 5.1
2017-Sep-18 12:44N 38°52' W 076°29'1 5.7
2017-Sep-18 12:30N 38°52' W 076°31'1 0.1
2017-Sep-17 20:59N 38°53' W 076°31'  

Dump ship's entire track history